createdAt,value
2022-12-18T00:02:13.551Z,14.25
2022-12-18T00:04:40.122Z,14.45
2022-12-18T00:07:06.651Z,13.73
2022-12-18T00:09:40.081Z,13.93
2022-12-18T00:17:11.907Z,10.13
2022-12-18T00:19:38.387Z,10.10
2022-12-18T00:22:04.969Z,9.50
2022-12-18T00:24:31.680Z,11.80
2022-12-18T00:26:58.122Z,12.82
2022-12-18T00:29:24.564Z,12.27
2022-12-18T00:31:51.141Z,14.10
2022-12-18T00:34:17.666Z,11.98
2022-12-18T00:36:44.228Z,11.18
2022-12-18T00:39:12.957Z,12.43
2022-12-18T00:41:58.063Z,11.68
2022-12-18T00:44:25.592Z,9.00
2022-12-18T00:46:52.180Z,12.38
2022-12-18T00:49:20.330Z,12.55
2022-12-18T00:51:47.019Z,12.73
2022-12-18T00:54:13.530Z,12.88
2022-12-18T00:56:48.465Z,14.65
2022-12-18T00:59:16.862Z,10.30
2022-12-18T01:01:43.628Z,11.25
2022-12-18T01:04:10.411Z,10.65
2022-12-18T01:06:37.582Z,11.43
2022-12-18T01:09:04.179Z,11.85
2022-12-18T01:11:31.385Z,10.15
2022-12-18T01:13:57.988Z,10.15
2022-12-18T01:16:24.585Z,11.00
2022-12-18T01:18:55.570Z,10.30
2022-12-18T01:21:22.938Z,7.15
2022-12-18T01:23:53.256Z,9.82
2022-12-18T01:26:19.880Z,8.27
2022-12-18T01:28:46.390Z,7.82
2022-12-18T01:31:21.797Z,10.80
2022-12-18T01:33:49.686Z,10.13
2022-12-18T01:36:23.559Z,11.65
2022-12-18T01:38:50.578Z,9.27
2022-12-18T01:41:19.346Z,10.38
2022-12-18T01:43:49.240Z,7.65
2022-12-18T01:46:17.778Z,10.23
2022-12-18T01:48:46.365Z,11.55
2022-12-18T01:51:13.506Z,9.50
2022-12-18T01:53:42.151Z,8.15
2022-12-18T01:56:10.285Z,10.40
2022-12-18T01:58:47.026Z,10.93
2022-12-18T02:01:13.703Z,11.57
2022-12-18T02:03:43.679Z,13.15
2022-12-18T02:06:34.465Z,11.27
2022-12-18T02:09:12.602Z,12.60
2022-12-18T02:11:53.736Z,11.23
2022-12-18T02:14:26.703Z,11.35
2022-12-18T02:19:44.287Z,8.73
2022-12-18T02:22:29.676Z,10.68
2022-12-18T02:24:59.143Z,10.02
2022-12-18T02:27:25.874Z,8.38
2022-12-18T02:29:58.198Z,9.60
2022-12-18T02:32:31.339Z,7.05
2022-12-18T02:34:58.697Z,9.50
2022-12-18T02:37:28.965Z,8.73
2022-12-18T02:39:57.320Z,8.05
2022-12-18T02:42:24.789Z,9.35
2022-12-18T02:44:52.689Z,8.75
2022-12-18T02:47:25.667Z,7.68
2022-12-18T02:52:43.208Z,9.30
2022-12-18T02:55:33.632Z,7.55
2022-12-18T02:58:17.904Z,7.82
2022-12-18T03:01:21.042Z,7.97
2022-12-18T03:03:53.217Z,8.02
2022-12-18T03:06:32.980Z,8.25
2022-12-18T03:09:03.585Z,7.32
2022-12-18T03:11:52.667Z,9.32
2022-12-18T03:14:21.597Z,7.88
2022-12-18T03:16:52.116Z,10.40
2022-12-18T03:19:22.170Z,8.40
2022-12-18T03:21:53.170Z,6.20
2022-12-18T03:24:20.979Z,10.77
2022-12-18T03:26:51.840Z,9.45
2022-12-18T03:29:37.910Z,6.43
2022-12-18T03:32:16.403Z,9.27
2022-12-18T03:34:43.586Z,8.02
2022-12-18T03:37:13.042Z,6.78
2022-12-18T03:39:41.062Z,10.02
2022-12-18T03:42:16.551Z,6.57
2022-12-18T03:45:08.899Z,6.50
2022-12-18T03:50:57.681Z,7.03
2022-12-18T03:53:40.642Z,8.30
2022-12-18T03:56:09.451Z,8.48
2022-12-18T03:58:42.100Z,6.93
2022-12-18T04:01:23.152Z,10.20
2022-12-18T04:06:19.087Z,8.77
2022-12-18T04:08:46.967Z,9.05
2022-12-18T04:11:16.927Z,8.45
2022-12-18T04:13:45.379Z,9.18
2022-12-18T04:16:19.542Z,7.53
2022-12-18T04:18:49.138Z,8.85
2022-12-18T04:21:16.030Z,9.43
2022-12-18T04:23:42.862Z,8.23
2022-12-18T04:26:09.656Z,9.18
2022-12-18T04:28:45.205Z,7.88
2022-12-18T04:31:13.469Z,9.23
2022-12-18T04:33:40.407Z,8.98
2022-12-18T04:36:07.903Z,8.40
2022-12-18T04:38:34.954Z,6.88
2022-12-18T04:41:07.196Z,8.00
2022-12-18T04:43:34.698Z,10.73
2022-12-18T04:46:06.336Z,7.90
2022-12-18T04:48:32.960Z,9.75
2022-12-18T04:50:59.445Z,8.82
2022-12-18T04:53:26.425Z,6.75
2022-12-18T04:56:04.345Z,9.80
2022-12-18T04:58:30.822Z,10.50
2022-12-18T05:00:57.274Z,8.35
2022-12-18T05:03:23.857Z,8.57
2022-12-18T05:05:51.973Z,9.48
2022-12-18T05:08:19.158Z,10.10
2022-12-18T05:10:46.549Z,9.82
2022-12-18T05:13:13.026Z,9.80
2022-12-18T05:15:39.621Z,8.75
2022-12-18T05:18:06.147Z,8.88
2022-12-18T05:20:33.006Z,9.23
2022-12-18T05:22:59.496Z,7.90
2022-12-18T05:25:26.085Z,9.68
2022-12-18T05:27:52.546Z,8.85
2022-12-18T05:30:19.069Z,8.60
2022-12-18T05:32:45.542Z,9.45
2022-12-18T05:35:12.307Z,6.70
2022-12-18T05:37:42.954Z,8.38
2022-12-18T05:40:10.985Z,7.90
2022-12-18T05:42:37.529Z,7.82
2022-12-18T05:45:04.833Z,8.60
2022-12-18T05:47:31.371Z,4.93
2022-12-18T05:49:57.856Z,8.50
2022-12-18T05:52:24.415Z,8.40
2022-12-18T05:54:51.007Z,9.13
2022-12-18T05:57:17.533Z,7.88
2022-12-18T05:59:44.112Z,7.28
2022-12-18T06:02:10.738Z,6.25
2022-12-18T06:04:37.398Z,8.35
2022-12-18T06:07:03.903Z,8.60
2022-12-18T06:09:30.569Z,6.25
2022-12-18T06:11:57.111Z,8.48
2022-12-18T06:14:23.627Z,8.32
2022-12-18T06:16:52.466Z,6.85
2022-12-18T06:21:45.574Z,7.70
2022-12-18T06:24:12.099Z,7.50
2022-12-18T06:26:39.867Z,7.82
2022-12-18T06:29:06.818Z,7.93
2022-12-18T06:31:33.474Z,8.52
2022-12-18T06:34:03.345Z,8.88
2022-12-18T06:36:30.651Z,9.32
2022-12-18T06:38:58.413Z,7.47
2022-12-18T06:41:24.885Z,8.70
2022-12-18T06:43:52.853Z,9.15
2022-12-18T06:46:21.212Z,8.80
2022-12-18T06:48:49.823Z,7.50
2022-12-18T06:51:18.273Z,7.38
2022-12-18T06:53:44.834Z,6.00
2022-12-18T06:56:11.352Z,5.38
2022-12-18T06:58:38.965Z,5.25
2022-12-18T07:01:07.878Z,6.45
2022-12-18T07:03:34.606Z,6.68
2022-12-18T07:06:01.093Z,6.45
2022-12-18T07:08:27.636Z,7.72
2022-12-18T07:10:56.357Z,8.10
2022-12-18T07:13:23.284Z,8.95
2022-12-18T07:15:49.745Z,8.90
2022-12-18T07:18:16.331Z,8.13
2022-12-18T07:20:42.872Z,6.57
2022-12-18T07:23:09.325Z,7.20
2022-12-18T07:25:36.462Z,8.48
2022-12-18T07:28:03.494Z,7.75
2022-12-18T07:30:30.102Z,7.43
2022-12-18T07:32:58.900Z,8.65
2022-12-18T07:37:52.293Z,7.30
2022-12-18T07:40:18.918Z,6.15
2022-12-18T07:42:45.387Z,8.70
2022-12-18T07:45:11.912Z,9.10
2022-12-18T07:47:38.560Z,9.30
2022-12-18T07:50:06.272Z,8.80
2022-12-18T07:52:32.766Z,8.98
2022-12-18T07:54:59.881Z,7.70
2022-12-18T07:57:49.521Z,10.25
2022-12-18T08:00:13.860Z,7.50
2022-12-18T08:02:40.477Z,7.80
2022-12-18T08:05:09.206Z,10.02
2022-12-18T08:07:35.744Z,11.25
2022-12-18T08:10:02.197Z,9.80
2022-12-18T08:12:28.716Z,11.10
2022-12-18T08:14:55.222Z,8.18
2022-12-18T08:17:21.679Z,8.15
2022-12-18T08:19:48.193Z,7.88
2022-12-18T08:22:14.781Z,7.20
2022-12-18T08:24:41.314Z,7.90
2022-12-18T08:29:54.212Z,8.13
2022-12-18T08:32:20.998Z,8.75
2022-12-18T08:34:47.605Z,8.43
2022-12-18T08:37:14.104Z,10.18
2022-12-18T08:39:40.642Z,11.13
2022-12-18T08:42:25.654Z,11.25
2022-12-18T08:44:52.144Z,9.85
2022-12-18T08:47:20.682Z,10.27
2022-12-18T08:49:47.150Z,10.57
2022-12-18T08:52:16.434Z,9.43
2022-12-18T08:54:43.158Z,10.52
2022-12-18T08:57:09.873Z,9.70
2022-12-18T08:59:36.326Z,8.23
2022-12-18T09:02:02.999Z,9.73
2022-12-18T09:04:29.661Z,10.73
2022-12-18T09:06:56.135Z,13.73
2022-12-18T09:09:22.808Z,11.32
2022-12-18T09:11:49.286Z,11.90
2022-12-18T09:14:15.742Z,11.20
2022-12-18T09:16:42.264Z,9.57
2022-12-18T09:19:09.622Z,9.05
2022-12-18T09:21:43.360Z,12.43
2022-12-18T09:24:14.340Z,9.88
2022-12-18T09:26:40.863Z,7.70
2022-12-18T09:29:10.117Z,8.80
2022-12-18T09:31:37.762Z,10.73
2022-12-18T09:34:04.257Z,9.70
2022-12-18T09:36:30.926Z,9.18
2022-12-18T09:38:57.374Z,11.35
2022-12-18T09:41:42.285Z,11.18
2022-12-18T09:44:17.068Z,10.95
2022-12-18T09:47:09.166Z,11.40
2022-12-18T09:49:40.493Z,11.13
2022-12-18T09:52:13.009Z,6.65
2022-12-18T09:54:41.097Z,11.35
2022-12-18T09:57:13.955Z,11.30
2022-12-18T09:59:41.522Z,12.45
2022-12-18T10:02:17.246Z,11.88
2022-12-18T10:04:44.027Z,11.00
2022-12-18T10:07:35.023Z,12.63
2022-12-18T10:10:32.558Z,10.75
2022-12-18T10:13:05.475Z,11.90
2022-12-18T10:15:44.547Z,12.68
2022-12-18T10:18:48.111Z,13.88
2022-12-18T10:21:19.987Z,14.45
2022-12-18T10:23:55.824Z,12.35
2022-12-18T10:26:22.449Z,13.63
2022-12-18T10:28:49.164Z,14.43
2022-12-18T10:31:24.722Z,11.52
2022-12-18T10:33:52.010Z,13.35
2022-12-18T10:36:18.545Z,14.25
2022-12-18T10:38:45.243Z,10.38
2022-12-18T10:41:23.010Z,14.45
2022-12-18T10:43:49.614Z,11.73
2022-12-18T10:46:18.457Z,13.45
2022-12-18T10:48:52.992Z,11.52
2022-12-18T10:51:34.424Z,13.20
2022-12-18T10:54:03.566Z,13.50
2022-12-18T10:56:37.858Z,12.35
2022-12-18T10:59:10.337Z,14.77
2022-12-18T11:02:00.279Z,11.20
2022-12-18T11:04:27.968Z,14.32
2022-12-18T11:06:55.854Z,13.52
2022-12-18T11:09:27.686Z,14.57
2022-12-18T11:11:56.852Z,13.70
2022-12-18T11:14:29.954Z,13.82
2022-12-18T11:17:24.430Z,14.45
2022-12-18T11:19:43.980Z,16.10
2022-12-18T11:22:34.871Z,12.13
2022-12-18T11:28:01.445Z,11.35
2022-12-18T11:30:37.030Z,9.48
2022-12-18T11:33:14.271Z,12.15
2022-12-18T11:35:53.767Z,11.77
2022-12-18T11:38:33.751Z,10.50
2022-12-18T11:41:05.267Z,11.13
2022-12-18T11:43:39.948Z,12.23
2022-12-18T11:46:13.576Z,11.60
2022-12-18T11:48:47.166Z,11.98
2022-12-18T11:51:27.247Z,10.70
2022-12-18T11:53:55.013Z,10.07
2022-12-18T11:56:31.083Z,12.02
2022-12-18T11:59:06.545Z,12.82
2022-12-18T12:01:47.557Z,10.32
2022-12-18T12:04:23.732Z,10.93
2022-12-18T12:07:14.413Z,10.40
2022-12-18T12:10:10.259Z,10.43
2022-12-18T12:13:04.608Z,11.98
2022-12-18T12:15:39.647Z,10.38
2022-12-18T12:18:21.391Z,11.45
2022-12-18T12:21:09.765Z,10.80
2022-12-18T12:24:23.889Z,12.10
2022-12-18T12:27:03.848Z,10.50
2022-12-18T12:30:00.834Z,10.93
2022-12-18T12:32:39.316Z,10.48
2022-12-18T12:35:12.062Z,12.85
2022-12-18T12:38:05.266Z,13.10
2022-12-18T12:40:52.566Z,10.05
2022-12-18T12:43:49.489Z,10.80
2022-12-18T12:46:19.783Z,11.23
2022-12-18T12:48:52.366Z,12.40
2022-12-18T12:51:26.210Z,10.80
2022-12-18T12:53:53.412Z,11.40
2022-12-18T12:56:22.131Z,11.07
2022-12-18T12:59:06.854Z,11.50
2022-12-18T13:01:58.637Z,11.05
2022-12-18T13:04:42.804Z,12.23
2022-12-18T13:07:29.578Z,11.75
2022-12-18T13:10:35.547Z,11.15
2022-12-18T13:13:09.072Z,10.80
2022-12-18T13:15:46.121Z,10.82
2022-12-18T13:18:20.557Z,11.10
2022-12-18T13:20:56.335Z,12.40
2022-12-18T13:23:26.661Z,12.02
2022-12-18T13:26:11.400Z,12.73
2022-12-18T13:28:47.561Z,12.25
2022-12-18T13:31:14.865Z,10.55
2022-12-18T13:34:09.390Z,10.98
2022-12-18T13:36:33.433Z,11.35
2022-12-18T13:39:19.792Z,12.88
2022-12-18T13:41:54.308Z,10.15
2022-12-18T13:44:38.565Z,12.82
2022-12-18T13:47:27.646Z,11.10
2022-12-18T13:49:54.739Z,11.80
2022-12-18T13:52:36.233Z,10.48
2022-12-18T13:55:06.225Z,12.38
2022-12-18T13:57:39.258Z,12.35
2022-12-18T14:00:21.315Z,10.95
2022-12-18T14:02:48.006Z,11.30
2022-12-18T14:05:28.262Z,10.27
2022-12-18T14:07:55.564Z,12.75
2022-12-18T14:13:11.021Z,11.07
2022-12-18T14:15:47.709Z,11.20
2022-12-18T14:18:36.405Z,11.05
2022-12-18T14:21:04.376Z,12.23
2022-12-18T14:23:36.685Z,10.80
2022-12-18T14:26:25.357Z,10.88
2022-12-18T14:28:52.157Z,10.95
2022-12-18T14:31:26.534Z,11.13
2022-12-18T14:33:53.723Z,10.45
2022-12-18T14:36:28.237Z,12.10
2022-12-18T14:38:59.483Z,12.52
2022-12-18T14:41:26.764Z,12.85
2022-12-18T14:43:54.887Z,13.82
2022-12-18T14:46:36.541Z,11.15
2022-12-18T14:49:05.939Z,12.10
2022-12-18T14:51:34.391Z,12.00
2022-12-18T14:54:04.959Z,13.38
2022-12-18T14:56:33.529Z,11.35
2022-12-18T14:59:15.988Z,11.00
2022-12-18T15:02:04.290Z,10.52
2022-12-18T15:04:36.168Z,10.55
2022-12-18T15:07:14.790Z,11.52
2022-12-18T15:10:01.139Z,11.27
2022-12-18T15:12:39.479Z,11.68
2022-12-18T15:15:06.710Z,12.70
2022-12-18T15:17:33.347Z,11.55
2022-12-18T15:20:09.737Z,12.25
2022-12-18T15:22:37.293Z,12.25
2022-12-18T15:25:20.814Z,11.43
2022-12-18T15:27:48.153Z,11.80
2022-12-18T15:30:20.118Z,11.05
2022-12-18T15:32:47.734Z,11.02
2022-12-18T15:35:16.899Z,11.15
2022-12-18T15:37:43.932Z,11.02
2022-12-18T15:40:24.748Z,11.05
2022-12-18T15:43:13.184Z,11.60
2022-12-18T15:45:40.001Z,12.45
2022-12-18T15:48:22.210Z,12.15
2022-12-18T15:50:50.571Z,11.43
2022-12-18T15:53:17.474Z,13.57
2022-12-18T15:56:10.178Z,11.23
2022-12-18T15:58:36.958Z,11.50
2022-12-18T16:01:04.784Z,11.60
2022-12-18T16:03:31.417Z,11.60
2022-12-18T16:05:59.289Z,11.82
2022-12-18T16:10:53.000Z,10.60
2022-12-18T16:13:20.448Z,12.18
2022-12-18T16:15:47.058Z,11.43
2022-12-18T16:18:13.799Z,12.93
2022-12-18T16:20:40.378Z,11.40
2022-12-18T16:23:06.885Z,11.82
2022-12-18T16:25:33.757Z,12.00
2022-12-18T16:28:00.468Z,10.48
2022-12-18T16:30:32.331Z,12.52
2022-12-18T16:33:05.094Z,10.52
2022-12-18T16:35:31.902Z,11.40
2022-12-18T16:37:58.513Z,11.50
2022-12-18T16:40:25.628Z,11.13
2022-12-18T16:43:00.854Z,11.10
2022-12-18T16:45:27.378Z,7.65
2022-12-18T16:47:53.862Z,11.27
2022-12-18T16:50:20.353Z,12.07
2022-12-18T16:52:46.966Z,11.50
2022-12-18T16:55:13.479Z,9.55
2022-12-18T16:57:40.029Z,12.27
2022-12-18T17:00:07.370Z,10.65
2022-12-18T17:02:34.201Z,9.73
2022-12-18T17:05:00.859Z,11.80
2022-12-18T17:07:28.321Z,10.38
2022-12-18T17:09:54.992Z,10.88
2022-12-18T17:12:21.659Z,11.77
2022-12-18T17:14:48.238Z,11.65
2022-12-18T17:17:23.766Z,12.40
2022-12-18T17:19:51.595Z,10.85
2022-12-18T17:22:18.236Z,11.27
2022-12-18T17:24:44.770Z,11.27
2022-12-18T17:27:11.438Z,11.55
2022-12-18T17:29:41.284Z,10.65
2022-12-18T17:32:11.832Z,10.75
2022-12-18T17:37:07.145Z,9.63
2022-12-18T17:39:33.672Z,8.55
2022-12-18T17:42:01.240Z,10.18
2022-12-18T17:44:27.766Z,8.50
2022-12-18T17:46:54.374Z,9.82
2022-12-18T17:49:21.501Z,9.90
2022-12-18T17:51:48.440Z,10.00
2022-12-18T17:54:14.996Z,11.38
2022-12-18T17:56:41.610Z,9.02
2022-12-18T17:59:08.242Z,10.02
2022-12-18T18:01:38.569Z,10.43
2022-12-18T18:04:09.150Z,10.15
2022-12-18T18:06:38.779Z,10.27
2022-12-18T18:09:06.698Z,9.02
2022-12-18T18:11:56.498Z,10.75
2022-12-18T18:14:23.307Z,11.02
2022-12-18T18:16:51.990Z,10.10
2022-12-18T18:19:23.419Z,10.18
2022-12-18T18:21:51.866Z,11.05
2022-12-18T18:24:23.166Z,11.35
2022-12-18T18:26:50.573Z,10.73
2022-12-18T18:29:20.830Z,8.88
2022-12-18T18:31:48.361Z,10.75
2022-12-18T18:34:21.327Z,9.48
2022-12-18T18:36:47.983Z,10.30
2022-12-18T18:39:14.906Z,11.25
2022-12-18T18:41:42.798Z,9.70
2022-12-18T18:44:16.529Z,9.93
2022-12-18T18:46:43.286Z,10.45
2022-12-18T18:49:09.790Z,11.95
2022-12-18T18:51:36.289Z,11.57
2022-12-18T18:54:02.908Z,9.50
2022-12-18T18:59:16.454Z,11.05
2022-12-18T19:01:43.206Z,11.00
2022-12-18T19:04:10.050Z,11.40
2022-12-18T19:06:36.581Z,10.95
2022-12-18T19:09:04.920Z,10.40
2022-12-18T19:11:49.863Z,10.50
2022-12-18T19:14:17.041Z,11.82
2022-12-18T19:16:45.395Z,11.35
2022-12-18T19:19:12.927Z,12.07
2022-12-18T19:21:41.000Z,10.50
2022-12-18T19:24:07.804Z,10.30
2022-12-18T19:29:08.105Z,10.68
2022-12-18T19:31:36.933Z,8.98
2022-12-18T19:34:06.471Z,10.77
2022-12-18T19:36:33.676Z,9.27
2022-12-18T19:39:01.339Z,10.27
2022-12-18T19:41:31.098Z,10.82
2022-12-18T19:43:58.370Z,8.35
2022-12-18T19:46:25.198Z,10.18
2022-12-18T19:48:52.325Z,9.90
2022-12-18T19:51:25.692Z,11.10
2022-12-18T19:53:58.142Z,9.50
2022-12-18T19:56:28.722Z,9.43
2022-12-18T19:58:55.574Z,10.38
2022-12-18T20:01:23.457Z,9.02
2022-12-18T20:03:53.628Z,8.15
2022-12-18T20:06:51.560Z,11.55
2022-12-18T20:09:19.099Z,10.52
2022-12-18T20:11:45.919Z,9.98
2022-12-18T20:14:14.290Z,11.68
2022-12-18T20:16:43.443Z,8.48
2022-12-18T20:19:12.513Z,10.85
2022-12-18T20:21:39.069Z,11.32
2022-12-18T20:24:07.247Z,10.50
2022-12-18T20:26:34.008Z,11.40
2022-12-18T20:29:00.625Z,9.27
2022-12-18T20:31:27.146Z,8.43
2022-12-18T20:33:59.575Z,8.35
2022-12-18T20:36:27.108Z,11.15
2022-12-18T20:38:58.265Z,8.73
2022-12-18T20:41:37.871Z,12.02
2022-12-18T20:44:13.728Z,9.90
2022-12-18T20:46:56.254Z,10.70
2022-12-18T20:49:24.363Z,9.73
2022-12-18T20:51:52.501Z,9.27
2022-12-18T20:54:19.169Z,10.32
2022-12-18T20:56:45.683Z,7.80
2022-12-18T20:59:12.164Z,9.90
2022-12-18T21:01:40.041Z,10.07
2022-12-18T21:04:11.755Z,10.00
2022-12-18T21:06:38.286Z,11.40
2022-12-18T21:09:04.754Z,9.68
2022-12-18T21:11:51.626Z,11.15
2022-12-18T21:14:24.186Z,11.20
2022-12-18T21:16:54.085Z,10.93
2022-12-18T21:19:25.574Z,9.88
2022-12-18T21:21:53.122Z,11.70
2022-12-18T21:24:20.111Z,10.10
2022-12-18T21:26:48.585Z,10.38
2022-12-18T21:29:17.680Z,11.50
2022-12-18T21:31:45.373Z,11.15
2022-12-18T21:34:22.761Z,10.43
2022-12-18T21:36:49.510Z,11.77
2022-12-18T21:39:16.529Z,10.18
2022-12-18T21:42:01.663Z,12.75
2022-12-18T21:44:28.728Z,10.25
2022-12-18T21:47:00.587Z,11.07
2022-12-18T21:49:33.277Z,10.75
2022-12-18T21:52:00.965Z,10.50
2022-12-18T21:54:28.577Z,10.80
2022-12-18T21:56:55.877Z,11.40
2022-12-18T21:59:26.135Z,10.05
2022-12-18T22:01:54.345Z,9.82
2022-12-18T22:06:48.561Z,9.85
2022-12-18T22:09:17.080Z,11.43
2022-12-18T22:14:10.453Z,10.38
2022-12-18T22:16:37.033Z,11.75
2022-12-18T22:19:04.781Z,10.65
2022-12-18T22:21:35.864Z,11.35
2022-12-18T22:24:07.558Z,11.13
2022-12-18T22:26:39.869Z,12.18
2022-12-18T22:29:30.688Z,11.63
2022-12-18T22:31:59.381Z,10.45
2022-12-18T22:34:25.911Z,11.65
2022-12-18T22:36:52.617Z,10.45
2022-12-18T22:39:26.916Z,10.27
2022-12-18T22:41:55.599Z,11.68
2022-12-18T22:44:26.027Z,10.48
2022-12-18T22:47:05.510Z,11.13
2022-12-18T22:49:35.210Z,11.52
2022-12-18T22:54:29.094Z,10.43
2022-12-18T22:56:55.632Z,11.05
2022-12-18T22:59:23.062Z,10.25
2022-12-18T23:01:51.490Z,10.73
2022-12-18T23:04:29.065Z,11.27
2022-12-18T23:07:02.457Z,11.70
2022-12-18T23:09:28.936Z,13.00
2022-12-18T23:11:55.401Z,13.40
2022-12-18T23:14:21.997Z,12.15
2022-12-18T23:16:48.997Z,11.15
2022-12-18T23:19:17.262Z,10.70
2022-12-18T23:21:43.782Z,11.02
2022-12-18T23:24:10.464Z,11.90
2022-12-18T23:26:37.291Z,13.35
2022-12-18T23:29:03.853Z,12.77
2022-12-18T23:31:32.887Z,12.73
2022-12-18T23:34:00.859Z,10.90
2022-12-18T23:36:27.728Z,11.40
2022-12-18T23:39:00.551Z,9.85
2022-12-18T23:41:30.108Z,12.88
2022-12-18T23:43:57.440Z,12.23
2022-12-18T23:46:29.561Z,12.25
2022-12-18T23:48:58.184Z,11.07
2022-12-18T23:53:53.431Z,11.40
2022-12-18T23:56:20.529Z,10.20
2022-12-18T23:58:47.258Z,12.60
